createdAt,value
2019-04-25T00:01:14.353Z,280.29
2019-04-25T00:02:36.766Z,280.22
2019-04-25T00:04:37.006Z,280.27
2019-04-25T00:05:58.985Z,280.23
2019-04-25T00:07:58.885Z,280.17
2019-04-25T00:09:21.922Z,280.12
2019-04-25T00:11:22.037Z,279.99
2019-04-25T00:12:44.570Z,279.99
2019-04-25T00:14:44.482Z,279.9
2019-04-25T00:16:06.486Z,279.92
2019-04-25T00:18:06.334Z,279.78
2019-04-25T00:19:28.292Z,279.84
2019-04-25T00:21:28.153Z,279.83
2019-04-25T00:22:51.537Z,279.79
2019-04-25T00:24:53.129Z,279.75
2019-04-25T00:26:15.067Z,279.7
2019-04-25T00:28:15.302Z,279.7
2019-04-25T00:29:37.239Z,279.74
2019-04-25T00:31:38.957Z,279.77
2019-04-25T00:33:02.034Z,279.75
2019-04-25T00:35:02.134Z,279.72
2019-04-25T00:36:24.076Z,279.69
2019-04-25T00:38:25.064Z,279.62
2019-04-25T00:39:47.203Z,279.57
2019-04-25T00:41:47.372Z,279.45
2019-04-25T00:43:09.379Z,279.29
2019-04-25T00:45:09.211Z,279.23
2019-04-25T00:46:32.226Z,279.19
2019-04-25T00:48:32.408Z,279.19
2019-04-25T00:49:54.338Z,279.14
2019-04-25T00:51:55.125Z,279.17
2019-04-25T00:53:17.062Z,279.19
2019-04-25T00:55:26.200Z,279.09
2019-04-25T00:56:52.389Z,279.05
2019-04-25T00:58:54.054Z,278.89
2019-04-25T01:00:16.095Z,278.88
2019-04-25T01:02:15.924Z,278.77
2019-04-25T01:03:42.241Z,278.57
2019-04-25T01:05:44.378Z,278.62
2019-04-25T01:07:06.647Z,278.65
2019-04-25T01:09:06.487Z,278.57
2019-04-25T01:10:28.430Z,278.45
2019-04-25T01:12:28.329Z,278.33
2019-04-25T01:13:50.437Z,278.25
2019-04-25T01:15:52.914Z,278.2
2019-04-25T01:17:15.846Z,278.14
2019-04-25T01:19:15.700Z,278.13
2019-04-25T01:20:37.681Z,278.09
2019-04-25T01:22:37.524Z,278.12
2019-04-25T01:23:59.448Z,278.13
2019-04-25T01:26:03.310Z,278.12
2019-04-25T01:27:33.289Z,278.15
2019-04-25T01:29:33.831Z,278.16
2019-04-25T01:30:56.263Z,278.11
2019-04-25T01:32:57.510Z,278.06
2019-04-25T01:34:20.864Z,278.14
2019-04-25T01:36:20.977Z,278.23
2019-04-25T01:37:43.825Z,278.18
2019-04-25T01:39:44.227Z,278.2
2019-04-25T01:41:06.336Z,278.23
2019-04-25T03:50:06.757Z,276.63
2019-04-25T03:51:29.208Z,276.63
2019-04-25T03:53:29.072Z,276.64
2019-04-25T03:54:51.059Z,276.62
2019-04-25T03:56:54.327Z,276.58
2019-04-25T03:58:18.094Z,276.56
2019-04-25T04:00:17.953Z,276.58
2019-04-25T04:01:39.946Z,276.58
2019-04-25T04:03:39.861Z,276.51
2019-04-25T04:05:04.558Z,276.47
2019-04-25T04:07:08.413Z,276.44
2019-04-25T04:08:32.166Z,276.42
2019-04-25T04:10:33.240Z,276.47
2019-04-25T04:12:38.103Z,276.52
2019-04-25T04:13:59.998Z,276.47
2019-04-25T04:15:59.924Z,276.45
2019-04-25T04:17:21.864Z,276.45
2019-04-25T04:19:21.786Z,276.47
2019-04-25T04:20:43.790Z,276.5
2019-04-25T04:22:43.908Z,276.49
2019-04-25T04:24:06.112Z,276.49
2019-04-25T04:26:06.231Z,276.52
2019-04-25T04:27:28.255Z,276.51
2019-04-25T04:29:28.096Z,276.53
2019-04-25T04:30:50.651Z,276.56
2019-04-25T04:32:50.578Z,276.56
2019-04-25T04:34:14.349Z,276.6
2019-04-25T04:36:17.215Z,276.57
2019-04-25T04:37:39.679Z,276.59
2019-04-25T04:39:39.938Z,276.56
2019-04-25T04:41:01.925Z,276.56
2019-04-25T04:43:02.089Z,276.59
2019-04-25T04:44:24.151Z,276.61
2019-04-25T04:46:24.178Z,276.6
2019-04-25T04:47:46.153Z,276.64
2019-04-25T04:49:46.002Z,276.62
2019-04-25T04:51:08.972Z,276.62
2019-04-25T04:53:10.929Z,276.67
2019-04-25T04:54:34.503Z,276.68
2019-04-25T04:56:36.251Z,276.71
2019-04-25T04:57:58.171Z,276.8
2019-04-25T04:59:58.010Z,276.86
2019-04-25T05:01:19.922Z,276.89
2019-04-25T05:03:19.915Z,276.9
2019-04-25T05:04:43.493Z,276.97
2019-04-25T05:06:43.755Z,277.07
2019-04-25T05:08:05.793Z,277.17
2019-04-25T05:10:05.713Z,277.24
2019-04-25T05:11:27.679Z,277.25
2019-04-25T05:13:27.605Z,277.3
2019-04-25T05:14:49.532Z,277.4
2019-04-25T05:16:49.604Z,277.5
2019-04-25T05:18:14.184Z,277.62
2019-04-25T05:20:18.543Z,277.71
2019-04-25T05:21:40.822Z,277.8
2019-04-25T05:23:41.428Z,277.86
2019-04-25T05:25:03.541Z,277.94
2019-04-25T05:27:03.892Z,278.05
2019-04-25T05:28:25.993Z,278.15
2019-04-25T05:30:26.588Z,278.24
2019-04-25T05:31:48.731Z,278.45
2019-04-25T05:33:48.793Z,278.54
2019-04-25T05:35:10.723Z,278.56
2019-04-25T05:37:10.592Z,278.66
2019-04-25T05:38:33.302Z,278.76
2019-04-25T05:40:33.624Z,278.87
2019-04-25T05:41:55.787Z,278.98
2019-04-25T05:43:55.795Z,279.05
2019-04-25T05:45:18.579Z,279.11
2019-04-25T05:47:21.340Z,279.21
2019-04-25T05:48:44.583Z,279.41
2019-04-25T05:50:45.684Z,279.5
2019-04-25T05:52:08.659Z,279.58
2019-04-25T05:54:08.589Z,279.77
2019-04-25T05:55:30.576Z,279.95
2019-04-25T05:57:44.886Z,280.03
2019-04-25T05:59:08.096Z,280.23
2019-04-25T06:01:08.256Z,280.32
2019-04-25T06:02:30.296Z,280.42
2019-04-25T06:04:30.348Z,280.54
2019-04-25T06:05:53.338Z,280.63
2019-04-25T06:07:54.317Z,280.7
2019-04-25T06:09:17.680Z,280.75
2019-04-25T06:11:18.061Z,280.83
2019-04-25T06:12:40.020Z,280.86
2019-04-25T06:14:43.289Z,280.92
2019-04-25T06:16:05.389Z,281.07
2019-04-25T06:18:05.849Z,281.22
2019-04-25T06:19:27.891Z,281.4
2019-04-25T06:21:27.788Z,281.55
2019-04-25T06:22:49.787Z,281.67
2019-04-25T06:24:49.707Z,281.85
2019-04-25T06:26:22.563Z,282
2019-04-25T06:28:26.246Z,282.17
2019-04-25T06:29:57.624Z,282.31
2019-04-25T06:32:06.547Z,282.43
2019-04-25T06:33:30.357Z,282.56
2019-04-25T06:35:30.242Z,282.67
2019-04-25T06:36:53.597Z,282.79
2019-04-25T06:38:54.478Z,282.92
2019-04-25T06:40:16.405Z,283.06
2019-04-25T06:42:17.316Z,283.22
2019-04-25T06:43:39.314Z,283.44
2019-04-25T06:45:39.371Z,283.57
2019-04-25T06:47:01.383Z,283.81
2019-04-25T06:49:01.362Z,284.03
2019-04-25T06:50:24.875Z,284.18
2019-04-25T06:52:30.654Z,284.3
2019-04-25T06:53:54.038Z,284.52
2019-04-25T06:55:54.843Z,284.62
2019-04-25T06:57:16.854Z,284.75
2019-04-25T06:59:18.486Z,284.84
2019-04-25T07:00:42.632Z,284.98
2019-04-25T07:02:49.613Z,285.05
2019-04-25T07:04:11.549Z,285.16
2019-04-25T07:06:12.946Z,285.3
2019-04-25T07:07:37.207Z,285.38
2019-04-25T07:09:37.214Z,285.44
2019-04-25T07:10:59.209Z,285.56
2019-04-25T07:12:59.071Z,285.63
2019-04-25T07:14:21.061Z,285.67
2019-04-25T07:16:24.050Z,285.77
2019-04-25T07:19:04.587Z,285.9
2019-04-25T07:20:27.036Z,286.01
2019-04-25T07:22:27.347Z,286.13
2019-04-25T07:23:49.314Z,286.2
2019-04-25T07:25:49.211Z,286.32
2019-04-25T07:27:16.224Z,286.43
2019-04-25T07:29:16.258Z,286.54
2019-04-25T07:32:47.003Z,286.71
2019-04-25T07:34:10.971Z,286.78
2019-04-25T07:36:10.856Z,286.81
2019-04-25T07:37:34.909Z,286.88
2019-04-25T07:39:37.088Z,287.06
2019-04-25T07:40:59.071Z,287.16
2019-04-25T07:42:58.972Z,287.3
2019-04-25T07:44:33.631Z,287.42
2019-04-25T07:46:39.260Z,287.51
2019-04-25T07:48:01.857Z,287.67
2019-04-25T07:50:01.852Z,287.75
2019-04-25T07:51:23.790Z,287.83
2019-04-25T07:53:24.015Z,287.9
2019-04-25T07:54:47.691Z,288.08
2019-04-25T07:56:49.211Z,288.11
2019-04-25T07:58:11.312Z,288.2
2019-04-25T08:00:11.296Z,288.17
2019-04-25T08:01:36.102Z,288.31
2019-04-25T08:03:37.139Z,288.46
2019-04-25T08:04:59.076Z,288.53
2019-04-25T08:06:58.976Z,288.46
2019-04-25T08:08:20.931Z,288.53
2019-04-25T08:10:21.612Z,288.51
2019-04-25T08:11:44.107Z,288.56
2019-04-25T08:13:44.044Z,288.72
2019-04-25T08:15:05.998Z,288.86
2019-04-25T08:17:05.925Z,288.89
2019-04-25T08:18:28.714Z,288.87
2019-04-25T08:20:29.277Z,288.93
2019-04-25T08:21:51.367Z,289.04
2019-04-25T08:23:51.216Z,289.06
2019-04-25T08:25:13.786Z,289.17
2019-04-25T08:27:13.803Z,289.28
2019-04-25T08:28:48.849Z,289.31
2019-04-25T08:41:16.179Z,289.73
2019-04-25T08:42:38.094Z,289.69
2019-04-25T08:44:37.933Z,289.78
2019-04-25T08:45:59.961Z,289.84
2019-04-25T08:48:03.666Z,289.8
2019-04-25T08:49:25.697Z,289.97
2019-04-25T08:51:25.535Z,290.17
2019-04-25T08:52:47.434Z,290.21
2019-04-25T08:54:47.696Z,290.31
2019-04-25T08:56:11.678Z,290.45
2019-04-25T08:58:11.549Z,290.42
2019-04-25T08:59:40.073Z,290.47
2019-04-25T09:01:45.193Z,290.47
2019-04-25T09:03:07.304Z,290.59
2019-04-25T09:05:07.259Z,290.58
2019-04-25T09:06:29.402Z,290.68
2019-04-25T09:08:29.582Z,290.73
2019-04-25T09:09:53.527Z,290.75
2019-04-25T09:11:54.383Z,290.8
2019-04-25T09:13:16.726Z,290.84
2019-04-25T09:15:16.729Z,290.88
2019-04-25T09:16:39.806Z,290.95
2019-04-25T09:18:40.267Z,291.08
2019-04-25T09:20:03.882Z,291.18
2019-04-25T09:22:03.937Z,291.2
2019-04-25T09:23:26.975Z,291.3
2019-04-25T09:25:26.808Z,291.29
2019-04-25T09:26:48.830Z,291.34
2019-04-25T09:28:48.732Z,291.41
2019-04-25T09:30:10.649Z,291.49
2019-04-25T09:32:10.506Z,291.52
2019-04-25T09:33:34.168Z,291.61
2019-04-25T09:35:36.051Z,291.67
2019-04-25T09:36:58.158Z,291.69
2019-04-25T09:38:57.996Z,291.73
2019-04-25T09:40:19.998Z,291.77
2019-04-25T09:42:19.848Z,291.85
2019-04-25T09:43:41.917Z,291.9
2019-04-25T09:45:43.462Z,291.96
2019-04-25T09:47:06.982Z,292.06
2019-04-25T09:49:08.828Z,292.17
2019-04-25T09:50:30.830Z,292.2
2019-04-25T09:52:30.731Z,292.27
2019-04-25T09:53:54.204Z,292.4
2019-04-25T09:55:54.309Z,292.42
2019-04-25T09:57:16.251Z,292.39
2019-04-25T09:59:26.774Z,292.39
2019-04-25T10:00:54.716Z,292.46
2019-04-25T10:02:55.534Z,292.58
2019-04-25T10:04:17.536Z,292.72
2019-04-25T10:06:17.374Z,292.92
2019-04-25T10:07:39.299Z,292.97
2019-04-25T10:09:39.853Z,293.03
2019-04-25T10:11:01.927Z,293.13
2019-04-25T10:13:04.031Z,293.15
2019-04-25T10:14:28.131Z,293.37
2019-04-25T10:16:28.004Z,293.45
2019-04-25T10:17:49.938Z,293.39
2019-04-25T10:19:49.784Z,293.36
2019-04-25T10:21:12.010Z,293.33
2019-04-25T10:23:11.872Z,293.48
2019-04-25T10:24:33.853Z,293.65
2019-04-25T10:26:34.909Z,293.67
2019-04-25T10:27:57.066Z,293.75
2019-04-25T10:29:57.776Z,293.89
2019-04-25T10:31:19.777Z,293.93
2019-04-25T10:33:19.646Z,294
2019-04-25T10:34:44.663Z,294.18
2019-04-25T10:36:46.777Z,294.29
2019-04-25T10:38:09.787Z,294.29
2019-04-25T10:40:09.845Z,294.26
2019-04-25T10:41:33.623Z,294.1
2019-04-25T10:43:35.796Z,294.11
2019-04-25T10:44:57.849Z,294.19
2019-04-25T10:46:57.697Z,294.25
2019-04-25T10:48:19.613Z,294.37
2019-04-25T10:50:19.460Z,294.32
2019-04-25T10:51:42.718Z,294.37
2019-04-25T10:53:46.022Z,294.38
2019-04-25T10:55:08.896Z,294.46
2019-04-25T10:57:09.376Z,294.57
2019-04-25T10:58:31.292Z,294.57
2019-04-25T11:00:31.211Z,294.65
2019-04-25T11:01:55.089Z,294.64
2019-04-25T11:03:55.668Z,294.63
2019-04-25T11:05:18.328Z,294.69
2019-04-25T11:07:18.653Z,295.1
2019-04-25T11:08:40.568Z,295.22
2019-04-25T11:10:40.583Z,295.07
2019-04-25T11:12:03.608Z,295.02
2019-04-25T11:14:03.545Z,294.92
2019-04-25T11:15:25.452Z,294.84
2019-04-25T11:17:25.470Z,295.03
2019-04-25T11:18:47.598Z,295.17
2019-04-25T11:20:47.609Z,295.32
2019-04-25T11:22:09.690Z,295.29
2019-04-25T11:24:09.617Z,295.28
2019-04-25T11:25:31.569Z,295.47
2019-04-25T11:27:31.451Z,295.78
2019-04-25T11:28:54.409Z,295.82
2019-04-25T11:30:55.504Z,295.89
2019-04-25T11:32:19.881Z,295.85
2019-04-25T11:34:20.600Z,295.91
2019-04-25T11:35:42.586Z,295.85
2019-04-25T11:37:43.166Z,295.89
2019-04-25T11:39:05.203Z,295.96
2019-04-25T11:41:05.067Z,295.97
2019-04-25T11:42:27.053Z,295.99
2019-04-25T11:44:26.902Z,296.18
2019-04-25T11:45:49.221Z,296.32
2019-04-25T11:47:49.862Z,296.18
2019-04-25T11:49:13.115Z,296.02
2019-04-25T11:51:15.037Z,295.89
2019-04-25T11:52:43.715Z,295.85
2019-04-25T11:54:45.745Z,295.94
2019-04-25T11:56:08.735Z,296.02
2019-04-25T11:58:08.728Z,296.02
2019-04-25T11:59:30.735Z,296.02
2019-04-25T12:01:30.587Z,296.01
2019-04-25T12:02:52.589Z,296.08
2019-04-25T12:04:54.863Z,296.08
2019-04-25T12:06:20.494Z,295.98
2019-04-25T12:08:21.065Z,295.94
2019-04-25T12:09:46.499Z,295.88
2019-04-25T12:11:47.225Z,295.87
2019-04-25T12:13:10.505Z,295.67
2019-04-25T12:15:10.352Z,295.56
2019-04-25T12:16:32.406Z,295.38
2019-04-25T12:18:33.903Z,295.48
2019-04-25T12:19:57.494Z,295.57
2019-04-25T12:21:58.170Z,295.52
2019-04-25T12:23:21.215Z,295.36
2019-04-25T12:25:21.213Z,295.27
2019-04-25T12:26:45.102Z,295.22
2019-04-25T12:28:47.316Z,295.32
2019-04-25T12:30:09.292Z,295.42
2019-04-25T12:32:09.129Z,295.49
2019-04-25T12:33:32.000Z,295.48
2019-04-25T12:35:33.311Z,295.54
2019-04-25T12:36:55.369Z,295.49
2019-04-25T12:38:55.559Z,295.51
2019-04-25T12:40:17.533Z,295.57
2019-04-25T12:42:18.187Z,295.5
2019-04-25T12:43:40.343Z,295.47
2019-04-25T12:45:40.164Z,295.48
2019-04-25T12:47:03.358Z,295.47
2019-04-25T12:49:03.290Z,295.47
2019-04-25T12:50:25.213Z,295.4
2019-04-25T12:52:25.054Z,295.41
2019-04-25T12:53:47.949Z,295.4
2019-04-25T12:55:49.014Z,295.38
2019-04-25T12:57:10.976Z,295.4
2019-04-25T12:59:10.828Z,295.4
2019-04-25T13:00:34.203Z,295.46
2019-04-25T13:02:36.286Z,295.45
2019-04-25T13:03:58.865Z,295.47
2019-04-25T13:05:58.817Z,295.45
2019-04-25T13:07:20.729Z,295.5
2019-04-25T13:09:20.654Z,295.5
2019-04-25T13:10:44.299Z,295.6
2019-04-25T13:12:44.458Z,295.64
2019-04-25T13:14:06.414Z,295.7
2019-04-25T13:16:06.255Z,295.8
2019-04-25T13:17:28.247Z,295.88
2019-04-25T13:19:28.093Z,295.92
2019-04-25T13:20:49.994Z,295.92
2019-04-25T13:22:49.847Z,295.96
2019-04-25T13:24:11.844Z,296
2019-04-25T13:26:11.701Z,296.04
2019-04-25T13:27:34.011Z,296.06
2019-04-25T13:29:33.868Z,296.09
2019-04-25T13:31:03.783Z,296.18
2019-04-25T13:33:08.600Z,296.26
2019-04-25T13:34:36.241Z,296.26
2019-04-25T13:36:36.574Z,296.22
2019-04-25T13:37:59.297Z,296.2
2019-04-25T13:40:00.466Z,296.24
2019-04-25T13:41:22.572Z,296.21
2019-04-25T13:43:22.413Z,296.18
2019-04-25T13:44:44.420Z,296.32
2019-04-25T13:46:44.349Z,296.38
2019-04-25T13:47:36.588Z,296.47
2019-04-25T13:49:23.211Z,296.56
2019-04-25T13:50:45.934Z,296.7
2019-04-25T13:52:45.769Z,296.81
2019-04-25T13:54:08.590Z,296.9
2019-04-25T13:56:08.745Z,296.92
2019-04-25T13:57:30.641Z,297.13
2019-04-25T13:59:30.650Z,297.19
2019-04-25T14:00:53.380Z,297.24
2019-04-25T14:02:53.210Z,297.3
2019-04-25T14:04:15.156Z,297.43
2019-04-25T14:06:15.050Z,297.42
2019-04-25T14:07:37.008Z,297.41
2019-04-25T14:09:38.008Z,297.39
2019-04-25T14:10:59.928Z,297.36
2019-04-25T14:13:04.798Z,297.27
2019-04-25T14:14:26.828Z,297.47
2019-04-25T14:16:26.852Z,297.97
2019-04-25T14:17:48.840Z,298.21
2019-04-25T14:19:48.736Z,298.37
2019-04-25T14:21:10.650Z,298.37
2019-04-25T14:23:12.962Z,298.36
2019-04-25T14:24:36.590Z,298.28
2019-04-25T14:26:36.825Z,298.37
2019-04-25T14:28:01.179Z,298.64
2019-04-25T14:30:01.088Z,298.7
2019-04-25T14:31:33.547Z,298.63
2019-04-25T14:33:42.201Z,298.49
2019-04-25T14:35:04.157Z,298.29
2019-04-25T14:37:04.012Z,298.22
2019-04-25T14:38:26.572Z,298.42
2019-04-25T14:40:27.086Z,298.21
2019-04-25T14:41:49.072Z,298.03
2019-04-25T14:43:48.970Z,298.08
2019-04-25T14:45:11.379Z,298.07
2019-04-25T14:47:11.209Z,297.9
2019-04-25T14:48:33.526Z,297.95
2019-04-25T14:50:34.003Z,297.95
2019-04-25T14:51:56.101Z,297.95
2019-04-25T14:53:56.970Z,297.79
2019-04-25T14:55:19.818Z,297.67
2019-04-25T14:57:19.930Z,297.64
2019-04-25T14:58:45.443Z,297.59
2019-04-25T15:00:49.081Z,297.64
2019-04-25T15:02:11.118Z,297.71
2019-04-25T15:04:10.990Z,297.77
2019-04-25T15:05:33.008Z,297.71
2019-04-25T15:07:48.000Z,297.8
2019-04-25T15:09:58.000Z,297.74
2019-04-25T15:11:21.000Z,297.66
2019-04-25T15:13:24.000Z,297.79
2019-04-25T15:14:47.000Z,297.87
2019-04-25T15:16:47.000Z,297.9
2019-04-25T15:18:09.000Z,297.9
2019-04-25T15:20:09.000Z,298.01
2019-04-25T15:21:32.000Z,298.02
2019-04-25T15:23:32.000Z,297.92
2019-04-25T15:24:54.000Z,297.85
2019-04-25T15:26:54.000Z,297.8
2019-04-25T15:28:16.000Z,297.78
2019-04-25T15:30:16.000Z,297.73
2019-04-25T15:31:38.000Z,297.78
2019-04-25T15:33:38.000Z,297.71
2019-04-25T15:35:01.000Z,297.67
2019-04-25T15:37:01.000Z,297.65
2019-04-25T15:38:23.000Z,297.68
2019-04-25T15:40:24.000Z,297.64
2019-04-25T15:41:47.000Z,297.55
2019-04-25T15:43:47.000Z,297.55
2019-04-25T15:45:09.000Z,297.61
2019-04-25T15:47:08.000Z,297.69
2019-04-25T15:48:30.000Z,297.76
2019-04-25T15:50:30.000Z,297.77
2019-04-25T15:51:54.000Z,297.85
2019-04-25T15:53:54.000Z,297.97
2019-04-25T15:55:16.000Z,298.13
2019-04-25T15:57:16.000Z,298.2
2019-04-25T15:58:39.000Z,298.21
2019-04-25T16:00:39.000Z,298.2
2019-04-25T16:02:01.000Z,298.04
2019-04-25T16:04:09.000Z,297.95
2019-04-25T16:05:31.000Z,298.02
2019-04-25T16:07:32.000Z,298.03
2019-04-25T16:08:56.000Z,298.01
2019-04-25T16:10:56.000Z,298.02
2019-04-25T16:12:18.000Z,298.02
2019-04-25T16:14:18.000Z,297.97
2019-04-25T16:15:40.000Z,297.84
2019-04-25T16:17:41.000Z,297.69
2019-04-25T16:19:03.000Z,297.66
2019-04-25T16:21:03.000Z,297.63
2019-04-25T16:22:25.000Z,297.52
2019-04-25T16:24:25.000Z,297.49
2019-04-25T16:25:47.000Z,297.39
2019-04-25T16:27:47.000Z,297.33
2019-04-25T16:29:09.000Z,297.27
2019-04-25T16:31:09.000Z,297.27
2019-04-25T16:32:31.000Z,297.25
2019-04-25T16:34:34.000Z,297.24
2019-04-25T16:35:56.000Z,297.26
2019-04-25T16:37:56.000Z,297.29
2019-04-25T16:39:18.000Z,297.4
2019-04-25T16:41:20.000Z,297.47
2019-04-25T16:42:42.000Z,297.62
2019-04-25T16:44:42.000Z,297.56
2019-04-25T16:46:04.000Z,297.53
2019-04-25T16:48:06.000Z,297.55
2019-04-25T16:49:28.000Z,297.56
2019-04-25T16:51:29.000Z,297.5
2019-04-25T16:52:53.000Z,297.44
2019-04-25T16:54:53.000Z,297.47
2019-04-25T16:56:15.000Z,297.39
2019-04-25T16:58:15.000Z,297.32
2019-04-25T16:59:38.000Z,297.27
2019-04-25T17:01:38.000Z,297.23
2019-04-25T17:03:00.000Z,297.27
2019-04-25T17:05:00.000Z,297.32
2019-04-25T17:06:22.000Z,297.36
2019-04-25T17:08:22.000Z,297.47
2019-04-25T17:09:44.000Z,297.4
2019-04-25T17:11:44.000Z,297.27
2019-04-25T17:13:06.000Z,297.17
2019-04-25T17:15:06.000Z,297.1
2019-04-25T17:16:28.000Z,297.05
2019-04-25T17:18:30.000Z,296.94
2019-04-25T17:19:52.000Z,296.86
2019-04-25T17:21:52.000Z,296.83
2019-04-25T17:23:15.000Z,296.78
2019-04-25T17:25:15.000Z,296.75
2019-04-25T17:26:37.000Z,296.68
2019-04-25T17:28:37.000Z,296.61
2019-04-25T17:29:59.000Z,296.54
2019-04-25T17:31:59.000Z,296.52
2019-04-25T17:33:23.000Z,296.48
2019-04-25T17:35:22.000Z,296.45
2019-04-25T17:36:44.000Z,296.35
2019-04-25T17:38:44.000Z,296.28
2019-04-25T17:40:06.000Z,296.25
2019-04-25T17:42:06.000Z,296.22
2019-04-25T17:43:28.000Z,296.13
2019-04-25T17:45:29.000Z,296.08
2019-04-25T17:46:54.000Z,296.01
2019-04-25T17:49:06.000Z,295.95
2019-04-25T17:50:28.000Z,295.88
2019-04-25T17:52:28.000Z,295.83
2019-04-25T17:53:50.000Z,295.77
2019-04-25T17:55:50.000Z,295.72
2019-04-25T17:57:14.000Z,295.64
2019-04-25T17:59:14.000Z,295.57
2019-04-25T18:00:36.000Z,295.49
2019-04-25T18:02:37.000Z,295.4
2019-04-25T18:03:59.000Z,295.3
2019-04-25T18:05:59.000Z,295.22
2019-04-25T18:07:22.000Z,295.13
2019-04-25T18:09:22.000Z,295.04
2019-04-25T18:10:44.000Z,294.92
2019-04-25T18:12:44.000Z,294.86
2019-04-25T18:14:11.000Z,294.81
2019-04-25T18:16:11.000Z,294.78
2019-04-25T18:17:36.000Z,294.64
2019-04-25T18:19:38.000Z,294.49
2019-04-25T18:21:01.000Z,294.32
2019-04-25T18:23:01.000Z,294.15
2019-04-25T18:24:24.000Z,294.11
2019-04-25T18:26:25.000Z,294.04
2019-04-25T18:27:49.000Z,294.01
2019-04-25T18:29:49.000Z,293.87
2019-04-25T18:31:11.000Z,293.76
2019-04-25T18:33:11.000Z,293.62
2019-04-25T18:34:33.000Z,293.53
2019-04-25T18:36:33.000Z,293.39
2019-04-25T18:37:55.000Z,293.26
2019-04-25T18:39:55.000Z,293.11
2019-04-25T18:41:17.000Z,293.13
2019-04-25T18:43:17.000Z,292.87
2019-04-25T18:44:39.000Z,292.69
2019-04-25T18:46:40.000Z,292.54
2019-04-25T18:48:02.000Z,292.34
2019-04-25T18:50:02.000Z,292.21
2019-04-25T18:51:24.000Z,292.03
2019-04-25T18:53:24.000Z,291.86
2019-04-25T18:54:46.000Z,291.71
2019-04-25T18:56:47.000Z,291.67
2019-04-25T18:58:09.000Z,291.37
2019-04-25T19:00:09.000Z,291.27
2019-04-25T19:01:31.000Z,291.18
2019-04-25T19:03:31.000Z,291.08
2019-04-25T19:04:53.000Z,290.94
2019-04-25T19:06:54.000Z,290.83
2019-04-25T19:09:44.000Z,290.57
2019-04-25T19:11:06.000Z,290.42
2019-04-25T19:13:06.000Z,290.32
2019-04-25T19:14:35.000Z,290.21
2019-04-25T19:16:35.000Z,290.13
2019-04-25T19:17:57.000Z,290.03
2019-04-25T19:19:57.000Z,289.9
2019-04-25T19:21:19.000Z,289.82
2019-04-25T19:23:19.000Z,289.64
2019-04-25T19:24:41.000Z,289.57
2019-04-25T19:26:48.000Z,289.48
2019-04-25T19:28:10.000Z,289.38
2019-04-25T19:30:11.000Z,289.34
2019-04-25T19:31:33.000Z,289.23
2019-04-25T19:33:34.000Z,289.09
2019-04-25T19:34:58.000Z,288.95
2019-04-25T19:37:00.000Z,288.85
2019-04-25T19:38:22.000Z,288.77
2019-04-25T19:40:22.000Z,288.65
2019-04-25T19:41:44.000Z,288.52
2019-04-25T19:43:44.000Z,288.43
2019-04-25T19:45:06.000Z,288.36
2019-04-25T19:47:07.000Z,288.35
2019-04-25T19:48:29.000Z,288.26
2019-04-25T19:50:29.000Z,288.18
2019-04-25T19:51:51.000Z,288.17
2019-04-25T19:53:52.000Z,288.08
2019-04-25T19:55:14.000Z,287.99
2019-04-25T19:57:14.000Z,287.91
2019-04-25T19:58:36.000Z,287.82
2019-04-25T20:00:36.000Z,287.8
2019-04-25T20:01:58.000Z,288.05
2019-04-25T20:03:58.000Z,288.12
2019-04-25T20:05:20.000Z,288.09
2019-04-25T20:07:22.000Z,288.03
2019-04-25T20:08:44.000Z,287.86
2019-04-25T20:10:45.000Z,287.8
2019-04-25T20:12:07.000Z,287.64
2019-04-25T20:14:07.000Z,287.58
2019-04-25T20:15:29.000Z,287.47
2019-04-25T20:17:29.000Z,287.35
2019-04-25T20:18:51.000Z,287.29
2019-04-25T20:20:51.000Z,287.17
2019-04-25T20:22:13.000Z,287.54
2019-04-25T20:24:14.000Z,288.05
2019-04-25T20:25:37.000Z,288.09
2019-04-25T20:27:37.000Z,287.99
2019-04-25T20:28:59.000Z,287.94
2019-04-25T20:30:59.000Z,288.09
2019-04-25T20:32:21.000Z,288.42
2019-04-25T20:34:21.000Z,288.54
2019-04-25T20:35:43.000Z,288.66
2019-04-25T20:37:43.000Z,288.71
2019-04-25T20:39:05.000Z,288.72
2019-04-25T20:41:05.000Z,288.67
2019-04-25T20:42:27.000Z,288.64
2019-04-25T20:44:27.000Z,288.58
2019-04-25T20:45:49.000Z,288.57
2019-04-25T20:47:50.000Z,288.52
2019-04-25T20:49:12.000Z,288.47
2019-04-25T20:51:12.000Z,288.44
2019-04-25T20:52:34.000Z,288.42
2019-04-25T20:54:34.000Z,288.34
2019-04-25T20:55:56.000Z,288.28
2019-04-25T20:57:56.000Z,288.23
2019-04-25T20:59:19.000Z,288.18
2019-04-25T21:01:19.000Z,288.12
2019-04-25T21:02:41.000Z,288.09
2019-04-25T21:04:41.000Z,288.08
2019-04-25T21:06:03.000Z,288.03
2019-04-25T21:08:03.000Z,287.96
2019-04-25T21:09:25.000Z,287.9
2019-04-25T21:11:25.000Z,287.87
2019-04-25T21:12:47.000Z,287.84
2019-04-25T21:14:47.000Z,287.78
2019-04-25T21:16:11.000Z,287.71
2019-04-25T21:18:10.000Z,287.68
2019-04-25T21:19:32.000Z,287.65
2019-04-25T21:21:33.000Z,287.66
2019-04-25T21:22:55.000Z,287.63
2019-04-25T21:24:55.000Z,287.59
2019-04-25T21:26:17.000Z,287.56
2019-04-25T21:28:17.000Z,287.5
2019-04-25T21:29:40.000Z,287.46
2019-04-25T21:31:39.000Z,287.4
2019-04-25T21:33:02.000Z,287.34
2019-04-25T21:35:02.000Z,287.29
2019-04-25T21:36:25.000Z,287.21
2019-04-25T21:38:25.000Z,287.15
2019-04-25T21:39:47.000Z,287.11
2019-04-25T21:41:48.000Z,287.14
2019-04-25T21:43:10.000Z,287.14
2019-04-25T21:45:11.000Z,287.08
2019-04-25T21:46:33.000Z,287.08
2019-04-25T21:48:33.000Z,287.07
2019-04-25T21:49:56.000Z,287.03
2019-04-25T21:51:56.000Z,287.01
2019-04-25T21:53:18.000Z,286.98
2019-04-25T21:55:18.000Z,287.02
2019-04-25T21:56:41.000Z,286.99
2019-04-25T21:58:41.000Z,286.97
2019-04-25T22:00:03.000Z,286.97
2019-04-25T22:02:08.000Z,286.94
2019-04-25T22:03:31.000Z,286.95
2019-04-25T22:05:31.000Z,286.95
2019-04-25T22:06:53.000Z,286.94
2019-04-25T22:08:54.000Z,286.97
2019-04-25T22:10:17.000Z,286.98
2019-04-25T22:12:17.000Z,286.97
2019-04-25T22:13:39.000Z,286.94
2019-04-25T22:15:40.000Z,286.92
2019-04-25T22:17:02.000Z,286.87
2019-04-25T22:19:03.000Z,286.83
2019-04-25T22:20:26.000Z,286.8
2019-04-25T22:22:27.000Z,286.8
2019-04-25T22:23:49.000Z,286.77
2019-04-25T22:25:49.000Z,286.73
2019-04-25T22:27:11.000Z,286.69
2019-04-25T22:29:11.000Z,286.65
2019-04-25T22:30:33.000Z,286.63
2019-04-25T22:32:33.000Z,286.56
2019-04-25T22:33:55.000Z,286.55
2019-04-25T22:35:57.000Z,286.44
2019-04-25T22:37:21.000Z,286.45
2019-04-25T22:39:21.000Z,286.39
2019-04-25T22:40:43.000Z,286.36
2019-04-25T22:42:45.000Z,286.32
2019-04-25T22:44:07.000Z,286.32
2019-04-25T22:46:08.000Z,286.34
2019-04-25T22:47:30.000Z,286.31
2019-04-25T22:49:30.000Z,286.32
2019-04-25T22:50:52.000Z,286.29
2019-04-25T22:52:52.000Z,286.25
2019-04-25T22:54:14.000Z,286.21
2019-04-25T22:56:14.000Z,286.08
2019-04-25T22:57:36.000Z,286.06
2019-04-25T22:59:35.000Z,286.05
2019-04-25T23:00:57.000Z,286.07
2019-04-25T23:02:57.000Z,286.06
2019-04-25T23:04:19.000Z,285.95
2019-04-25T23:06:20.000Z,285.9
2019-04-25T23:07:42.000Z,285.85
2019-04-25T23:09:42.000Z,285.85
2019-04-25T23:11:04.000Z,285.81
2019-04-25T23:13:05.000Z,285.68
2019-04-25T23:14:28.000Z,285.61
2019-04-25T23:16:28.000Z,285.59
2019-04-25T23:17:50.000Z,285.52
2019-04-25T23:19:50.000Z,285.48
2019-04-25T23:21:12.000Z,285.53
2019-04-25T23:23:12.000Z,285.48
2019-04-25T23:24:36.000Z,285.42
2019-04-25T23:26:37.000Z,285.44
2019-04-25T23:27:59.000Z,285.54
2019-04-25T23:29:59.000Z,285.56
2019-04-25T23:31:21.000Z,285.52
2019-04-25T23:33:21.000Z,285.51
2019-04-25T23:34:43.000Z,285.4
2019-04-25T23:36:44.000Z,285.35